createdAt,value
2017-10-31T00:00:33.509Z,50.63
2017-10-31T00:01:42.484Z,50.45
2017-10-31T00:02:51.136Z,50.63
2017-10-31T00:03:59.777Z,50.63
2017-10-31T00:05:08.760Z,50.63
2017-10-31T00:06:18.076Z,50.73
2017-10-31T00:07:26.771Z,50.83
2017-10-31T00:08:35.751Z,50.83
2017-10-31T00:09:44.418Z,50.63
2017-10-31T00:10:54.054Z,50.93
2017-10-31T00:12:03.358Z,50.73
2017-10-31T00:13:12.377Z,50.45
2017-10-31T00:14:21.693Z,50.93
2017-10-31T00:15:30.664Z,50.73
2017-10-31T00:16:39.660Z,50.63
2017-10-31T00:17:49.620Z,50.63
2017-10-31T00:18:58.613Z,50.73
2017-10-31T00:20:07.917Z,50.25
2017-10-31T00:21:16.903Z,50.83
2017-10-31T00:22:26.227Z,50.63
2017-10-31T00:23:35.220Z,50.73
2017-10-31T00:24:44.557Z,50.25
2017-10-31T00:25:53.303Z,50.73
2017-10-31T00:27:02.310Z,50.93
2017-10-31T00:28:12.296Z,50.93
2017-10-31T00:29:21.293Z,50.93
2017-10-31T00:30:30.275Z,50.54
2017-10-31T00:31:38.917Z,50.73
2017-10-31T00:32:47.906Z,50.73
2017-10-31T00:33:56.874Z,50.73
2017-10-31T00:35:05.534Z,50.15
2017-10-31T00:36:14.197Z,50.54
2017-10-31T00:37:23.851Z,50.54
2017-10-31T00:38:33.568Z,50.54
2017-10-31T00:39:42.890Z,50.54
2017-10-31T00:40:52.211Z,50.73
2017-10-31T00:42:01.513Z,50.73
2017-10-31T00:43:10.589Z,50.45
2017-10-31T00:44:19.570Z,50.73
2017-10-31T00:45:28.875Z,50.73
2017-10-31T00:46:38.199Z,50.83
2017-10-31T00:47:46.864Z,50.83
2017-10-31T00:48:56.161Z,50.73
2017-10-31T00:50:05.142Z,50.63
2017-10-31T00:51:14.126Z,50.35
2017-10-31T00:52:23.138Z,50.63
2017-10-31T00:53:32.440Z,50.73
2017-10-31T00:54:41.756Z,50.63
2017-10-31T00:55:50.420Z,50.45
2017-10-31T00:56:59.413Z,50.35
2017-10-31T00:58:08.409Z,50.35
2017-10-31T00:59:17.774Z,50.54
2017-10-31T01:00:27.272Z,50.54
2017-10-31T01:01:35.918Z,50.54
2017-10-31T01:02:44.909Z,50.45
2017-10-31T01:03:53.574Z,50.45
2017-10-31T01:05:02.895Z,50.06
2017-10-31T01:06:11.893Z,50.25
2017-10-31T01:07:21.214Z,50.45
2017-10-31T01:08:30.204Z,49.96
2017-10-31T01:09:39.197Z,50.15
2017-10-31T01:10:48.868Z,50.06
2017-10-31T01:11:57.837Z,50.15
2017-10-31T01:13:07.165Z,50.15
2017-10-31T01:14:16.147Z,50.25
2017-10-31T01:15:25.143Z,50.25
2017-10-31T01:16:34.476Z,50.25
2017-10-31T01:17:43.779Z,50.15
2017-10-31T01:18:52.446Z,50.15
2017-10-31T01:20:01.437Z,50.06
2017-10-31T01:21:10.751Z,50.25
2017-10-31T01:22:19.743Z,50.15
2017-10-31T01:23:28.726Z,49.96
2017-10-31T01:24:37.415Z,50.15
2017-10-31T01:25:47.062Z,50.15
2017-10-31T01:26:55.798Z,50.15
2017-10-31T01:28:04.815Z,50.06
2017-10-31T01:29:14.149Z,50.35
2017-10-31T01:30:23.133Z,50.25
2017-10-31T01:31:32.134Z,50.15
2017-10-31T01:32:41.132Z,50.25
2017-10-31T01:33:50.110Z,50.15
2017-10-31T01:34:59.119Z,50.25
2017-10-31T01:36:08.098Z,50.25
2017-10-31T01:37:17.095Z,50.15
2017-10-31T01:38:26.424Z,50.45
2017-10-31T01:39:35.733Z,50.25
2017-10-31T01:40:45.177Z,50.15
2017-10-31T01:41:54.157Z,50.15
2017-10-31T01:43:03.821Z,50.15
2017-10-31T01:44:13.117Z,50.15
2017-10-31T01:45:22.112Z,50.15
2017-10-31T01:46:31.219Z,50.15
2017-10-31T01:47:40.241Z,50.06
2017-10-31T01:48:49.906Z,50.45
2017-10-31T01:49:58.899Z,50.25
2017-10-31T01:51:08.573Z,50.25
2017-10-31T01:52:17.243Z,50.06
2017-10-31T01:53:26.230Z,50.25
2017-10-31T01:54:35.558Z,50.06
2017-10-31T01:55:44.935Z,50.25
2017-10-31T01:56:53.591Z,50.35
2017-10-31T01:58:02.927Z,50.25
2017-10-31T01:59:11.964Z,50.35
2017-10-31T02:00:20.955Z,49.96
2017-10-31T02:01:29.616Z,50.15
2017-10-31T02:02:38.272Z,50.54
2017-10-31T02:03:46.934Z,50.15
2017-10-31T02:04:55.611Z,50.54
2017-10-31T02:06:04.359Z,50.25
2017-10-31T02:07:13.687Z,50.15
2017-10-31T02:08:22.673Z,50.06
2017-10-31T02:09:31.670Z,50.25
2017-10-31T02:10:40.975Z,50.25
2017-10-31T02:11:50.319Z,50.54
2017-10-31T02:12:59.316Z,50.25
2017-10-31T02:14:07.999Z,50.63
2017-10-31T02:15:17.661Z,50.06
2017-10-31T02:16:26.984Z,50.06
2017-10-31T02:17:35.639Z,50.15
2017-10-31T02:18:44.973Z,49.96
2017-10-31T02:19:53.651Z,50.25
2017-10-31T02:21:03.311Z,50.25
2017-10-31T02:22:12.940Z,50.25
2017-10-31T02:23:21.922Z,50.35
2017-10-31T02:24:30.567Z,50.06
2017-10-31T02:25:39.909Z,50.06
2017-10-31T02:26:48.893Z,49.96
2017-10-31T02:27:57.864Z,50.25
2017-10-31T02:29:07.231Z,50.35
2017-10-31T02:30:16.201Z,50.25
2017-10-31T02:31:25.211Z,49.96
2017-10-31T02:32:34.962Z,49.87
2017-10-31T02:33:43.634Z,49.96
2017-10-31T02:34:52.935Z,49.87
2017-10-31T02:36:02.289Z,49.87
2017-10-31T02:37:11.935Z,50.06
2017-10-31T02:38:20.919Z,50.25
2017-10-31T02:39:29.601Z,49.96
2017-10-31T02:40:38.581Z,50.25
2017-10-31T02:41:48.219Z,50.25
2017-10-31T02:42:56.906Z,49.96
2017-10-31T02:44:06.236Z,50.15
2017-10-31T02:45:15.229Z,50.25
2017-10-31T02:46:23.907Z,50.25
2017-10-31T02:47:32.896Z,49.96
2017-10-31T02:48:41.549Z,50.06
2017-10-31T02:49:50.863Z,49.96
2017-10-31T02:50:59.848Z,49.87
2017-10-31T02:52:08.511Z,49.87
2017-10-31T02:53:18.478Z,50.06
2017-10-31T02:54:27.455Z,50.06
2017-10-31T02:55:36.432Z,49.96
2017-10-31T02:56:46.100Z,49.87
2017-10-31T02:57:55.724Z,49.77
2017-10-31T02:59:04.526Z,49.68
2017-10-31T03:00:13.204Z,49.68
2017-10-31T03:01:22.203Z,49.68
2017-10-31T03:02:31.206Z,49.77
2017-10-31T03:03:40.842Z,49.77
2017-10-31T03:04:49.496Z,49.68
2017-10-31T03:05:58.468Z,49.77
2017-10-31T03:07:07.448Z,49.77
2017-10-31T03:08:16.765Z,49.77
2017-10-31T03:09:25.747Z,49.77
2017-10-31T03:10:34.408Z,49.96
2017-10-31T03:11:43.387Z,49.87
2017-10-31T03:12:52.149Z,49.87
2017-10-31T03:14:00.804Z,49.77
2017-10-31T03:15:10.118Z,49.87
2017-10-31T03:16:19.141Z,49.77
2017-10-31T03:17:27.792Z,49.96
2017-10-31T03:18:37.108Z,49.96
2017-10-31T03:19:46.122Z,49.87
2017-10-31T03:20:56.114Z,49.87
2017-10-31T03:22:05.432Z,49.96
2017-10-31T03:23:14.409Z,49.87
2017-10-31T03:24:23.827Z,49.96
2017-10-31T03:25:32.534Z,49.96
2017-10-31T03:26:41.870Z,49.96
2017-10-31T03:27:51.186Z,49.96
2017-10-31T03:28:59.850Z,49.77
2017-10-31T03:30:08.612Z,49.96
2017-10-31T03:31:18.267Z,49.68
2017-10-31T03:32:27.593Z,49.68
2017-10-31T03:33:36.238Z,49.96
2017-10-31T03:34:44.912Z,50.15
2017-10-31T03:35:53.933Z,50.06
2017-10-31T03:37:02.592Z,49.68
2017-10-31T03:38:11.897Z,50.15
2017-10-31T03:39:21.210Z,50.06
2017-10-31T03:40:30.856Z,50.06
2017-10-31T03:41:40.167Z,50.06
2017-10-31T03:42:49.498Z,49.96
2017-10-31T03:43:58.465Z,50.15
2017-10-31T03:45:07.470Z,50.06
2017-10-31T03:46:16.455Z,50.15
2017-10-31T03:47:25.443Z,49.96
2017-10-31T03:48:34.436Z,50.06
2017-10-31T03:49:43.737Z,50.06
2017-10-31T03:50:53.083Z,49.96
2017-10-31T03:52:02.408Z,49.96
2017-10-31T03:53:11.488Z,49.96
2017-10-31T03:54:20.463Z,49.87
2017-10-31T03:55:30.110Z,49.96
2017-10-31T03:56:39.421Z,50.15
2017-10-31T03:57:48.734Z,49.96
2017-10-31T03:58:57.404Z,50.15
2017-10-31T04:00:07.078Z,49.87
2017-10-31T04:01:16.402Z,49.87
2017-10-31T04:02:25.394Z,50.15
2017-10-31T04:03:34.054Z,49.58
2017-10-31T04:04:43.044Z,49.77
2017-10-31T04:05:52.384Z,49.68
2017-10-31T04:07:01.367Z,49.58
2017-10-31T04:08:10.690Z,49.68
2017-10-31T04:09:20.016Z,49.58
2017-10-31T04:10:29.381Z,50.15
2017-10-31T04:11:38.024Z,49.87
2017-10-31T04:12:47.008Z,49.77
2017-10-31T04:13:56.033Z,49.77
2017-10-31T04:15:04.703Z,49.77
2017-10-31T04:16:14.405Z,49.77
2017-10-31T04:17:23.060Z,49.68
2017-10-31T04:18:32.045Z,49.77
2017-10-31T04:19:41.673Z,49.68
2017-10-31T04:20:50.683Z,49.68
2017-10-31T04:21:59.335Z,49.68
2017-10-31T04:23:08.662Z,49.68
2017-10-31T04:24:17.971Z,49.48
2017-10-31T04:25:27.285Z,49.68
2017-10-31T04:26:36.596Z,49.58
2017-10-31T04:27:45.601Z,49.68
2017-10-31T04:28:54.265Z,49.48
2017-10-31T04:30:03.573Z,49.29
2017-10-31T04:31:12.564Z,49.29
2017-10-31T04:32:21.547Z,49.68
2017-10-31T04:33:30.210Z,49.48
2017-10-31T04:34:38.870Z,49.58
2017-10-31T04:35:47.859Z,49.58
2017-10-31T04:36:56.856Z,49.38
2017-10-31T04:38:05.850Z,49.77
2017-10-31T04:39:14.539Z,49.48
2017-10-31T04:40:23.546Z,49.77
2017-10-31T04:41:32.880Z,49.48
2017-10-31T04:42:41.558Z,49.38
2017-10-31T04:43:50.864Z,49.68
2017-10-31T04:45:00.196Z,49.68
2017-10-31T04:46:09.192Z,49.77
2017-10-31T04:47:18.185Z,49.87
2017-10-31T04:48:27.180Z,49.87
2017-10-31T04:49:36.505Z,49.87
2017-10-31T04:50:45.516Z,49.77
2017-10-31T04:51:54.526Z,49.87
2017-10-31T04:53:03.517Z,49.87
2017-10-31T04:54:12.521Z,49.87
2017-10-31T04:55:21.824Z,49.77
2017-10-31T04:56:31.151Z,49.87
2017-10-31T04:57:41.125Z,49.87
2017-10-31T04:58:49.806Z,49.87
2017-10-31T04:59:59.491Z,49.77
2017-10-31T05:01:08.489Z,49.87
2017-10-31T05:02:17.227Z,49.87
2017-10-31T05:03:26.216Z,49.87
2017-10-31T05:04:35.898Z,49.87
2017-10-31T05:05:45.220Z,49.48
2017-10-31T05:06:53.886Z,49.87
2017-10-31T05:08:02.550Z,49.48
2017-10-31T05:09:11.873Z,49.87
2017-10-31T05:10:20.525Z,49.48
2017-10-31T05:11:29.540Z,49.87
2017-10-31T05:12:38.527Z,49.87
2017-10-31T05:13:47.847Z,49.96
2017-10-31T05:14:56.842Z,49.96
2017-10-31T05:16:06.177Z,49.77
2017-10-31T05:17:15.155Z,49.96
2017-10-31T05:18:23.822Z,49.87
2017-10-31T05:19:33.128Z,49.77
2017-10-31T05:20:42.435Z,49.48
2017-10-31T05:21:51.100Z,49.68
2017-10-31T05:23:00.424Z,49.68
2017-10-31T05:24:10.085Z,49.38
2017-10-31T05:25:19.737Z,49.38
2017-10-31T05:26:29.039Z,49.29
2017-10-31T05:27:38.377Z,49.38
2017-10-31T05:28:47.444Z,49.38
2017-10-31T05:29:56.443Z,49.19
2017-10-31T05:31:06.179Z,49.38
2017-10-31T05:32:15.161Z,49.29
2017-10-31T05:33:24.489Z,49.1
2017-10-31T05:34:33.794Z,49.29
2017-10-31T05:35:42.793Z,49.19
2017-10-31T05:36:52.448Z,49.29
2017-10-31T05:38:01.784Z,49.19
2017-10-31T05:39:10.784Z,49.29
2017-10-31T05:40:19.440Z,49.38
2017-10-31T05:41:28.757Z,49.38
2017-10-31T05:42:37.739Z,49.38
2017-10-31T05:43:47.066Z,49.48
2017-10-31T05:44:55.717Z,49.48
2017-10-31T05:46:04.402Z,49.48
2017-10-31T05:47:13.357Z,49.38
2017-10-31T05:48:22.351Z,49.38
2017-10-31T05:49:32.003Z,49.48
2017-10-31T05:50:40.989Z,49.38
2017-10-31T05:51:50.658Z,49.38
2017-10-31T05:52:59.638Z,49.48
2017-10-31T05:54:08.950Z,49.38
2017-10-31T05:55:18.254Z,49.38
2017-10-31T05:56:27.561Z,49.48
2017-10-31T05:57:36.209Z,49.58
2017-10-31T05:58:45.580Z,49.48
2017-10-31T05:59:54.580Z,49.48
2017-10-31T06:01:03.902Z,49.48
2017-10-31T06:02:13.207Z,49.48
2017-10-31T06:03:22.201Z,49.48
2017-10-31T06:04:31.181Z,49.1
2017-10-31T06:05:40.169Z,49.48
2017-10-31T06:06:49.842Z,49.1
2017-10-31T06:07:59.222Z,49.48
2017-10-31T06:09:08.245Z,49.48
2017-10-31T06:10:17.220Z,49.1
2017-10-31T06:11:25.977Z,49.1
2017-10-31T06:12:34.986Z,49.38
2017-10-31T06:13:44.012Z,49.1
2017-10-31T06:14:52.681Z,49.1
2017-10-31T06:16:01.671Z,49.1
2017-10-31T06:17:10.332Z,49.58
2017-10-31T06:18:19.332Z,49.1
2017-10-31T06:19:28.310Z,49
2017-10-31T06:20:37.961Z,49.38
2017-10-31T06:21:47.189Z,48.9
2017-10-31T06:22:55.840Z,48.9
2017-10-31T06:24:05.152Z,49.1
2017-10-31T06:25:13.808Z,48.9
2017-10-31T06:26:23.131Z,49
2017-10-31T06:27:32.484Z,48.9
2017-10-31T06:28:41.799Z,49
2017-10-31T06:29:50.781Z,49
2017-10-31T06:30:59.788Z,48.9
2017-10-31T06:32:08.528Z,48.81
2017-10-31T06:33:17.524Z,48.9
2017-10-31T06:34:26.523Z,49.1
2017-10-31T06:35:35.206Z,48.9
2017-10-31T06:36:44.198Z,49
2017-10-31T06:37:53.183Z,48.9
2017-10-31T06:39:02.861Z,48.9
2017-10-31T06:40:11.859Z,48.9
2017-10-31T06:41:21.170Z,49
2017-10-31T06:42:30.143Z,49.19
2017-10-31T06:43:39.463Z,49
2017-10-31T06:44:48.463Z,49
2017-10-31T06:45:57.775Z,48.61
2017-10-31T06:47:06.452Z,48.9
2017-10-31T06:48:15.767Z,49.1
2017-10-31T06:49:25.066Z,48.52
2017-10-31T06:50:34.063Z,49
2017-10-31T06:51:43.041Z,48.9
2017-10-31T06:52:52.366Z,48.9
2017-10-31T06:54:01.739Z,48.81
2017-10-31T06:55:10.819Z,48.61
2017-10-31T06:56:20.188Z,48.9
2017-10-31T06:57:29.687Z,48.61
2017-10-31T06:58:39.789Z,48.71
2017-10-31T06:59:48.935Z,48.9
2017-10-31T07:00:57.932Z,48.9
2017-10-31T07:02:07.846Z,49
2017-10-31T07:03:17.305Z,48.9
2017-10-31T07:04:26.174Z,48.9
2017-10-31T07:05:35.484Z,48.81
2017-10-31T07:06:44.548Z,48.71
2017-10-31T07:07:53.874Z,48.71
2017-10-31T07:09:02.860Z,49
2017-10-31T07:10:11.509Z,48.81
2017-10-31T07:11:20.493Z,48.71
2017-10-31T07:12:29.838Z,48.61
2017-10-31T07:13:39.166Z,48.43
2017-10-31T07:14:48.451Z,48.52
2017-10-31T07:15:57.433Z,48.61
2017-10-31T07:17:06.429Z,48.81
2017-10-31T07:18:15.399Z,48.81
2017-10-31T07:19:24.713Z,48.81
2017-10-31T07:20:34.019Z,48.71
2017-10-31T07:21:43.054Z,48.71
2017-10-31T07:22:52.387Z,48.71
2017-10-31T07:24:02.124Z,48.71
2017-10-31T07:25:11.685Z,48.9
2017-10-31T07:26:20.819Z,48.81
2017-10-31T07:27:30.857Z,48.71
2017-10-31T07:28:39.978Z,48.71
2017-10-31T07:29:49.441Z,48.71
2017-10-31T07:30:59.235Z,48.71
2017-10-31T07:32:09.805Z,48.71
2017-10-31T07:33:20.776Z,48.61
2017-10-31T07:34:29.429Z,48.61
2017-10-31T07:35:38.836Z,48.61
2017-10-31T07:36:48.138Z,48.33
2017-10-31T07:37:56.922Z,48.52
2017-10-31T07:39:05.911Z,49.1
2017-10-31T07:40:14.552Z,48.61
2017-10-31T07:41:23.778Z,48.61
2017-10-31T07:42:32.681Z,48.43
2017-10-31T07:43:41.695Z,48.43
2017-10-31T07:44:51.039Z,48.33
2017-10-31T07:46:00.744Z,48.43
2017-10-31T07:47:09.798Z,48.71
2017-10-31T07:48:18.880Z,49
2017-10-31T07:49:28.200Z,49
2017-10-31T07:50:37.310Z,48.43
2017-10-31T07:51:46.039Z,48.61
2017-10-31T07:52:54.717Z,48.74
2017-10-31T07:54:04.685Z,48.83
2017-10-31T07:55:14.011Z,48.71
2017-10-31T07:56:22.979Z,48.64
2017-10-31T07:57:31.990Z,48.54
2017-10-31T07:58:40.641Z,48.35
2017-10-31T07:59:49.625Z,48.35
2017-10-31T08:00:59.277Z,48.54
2017-10-31T08:02:07.967Z,48.25
2017-10-31T08:03:16.631Z,48.44
2017-10-31T08:04:26.389Z,48.54
2017-10-31T08:05:35.696Z,48.74
2017-10-31T08:06:45.398Z,48.44
2017-10-31T08:07:54.403Z,48.44
2017-10-31T08:09:03.405Z,48.64
2017-10-31T08:10:12.069Z,48.64
2017-10-31T08:11:21.415Z,48.44
2017-10-31T08:12:30.952Z,48.44
2017-10-31T08:13:40.006Z,48.74
2017-10-31T08:14:49.391Z,48.44
2017-10-31T08:15:58.703Z,48.54
2017-10-31T08:17:07.682Z,48.35
2017-10-31T08:18:16.988Z,48.35
2017-10-31T08:19:26.020Z,48.44
2017-10-31T08:20:35.027Z,48.54
2017-10-31T08:21:43.734Z,48.54
2017-10-31T08:22:53.002Z,48.54
2017-10-31T08:24:02.091Z,48.35
2017-10-31T08:25:11.415Z,48.74
2017-10-31T08:26:20.073Z,48.35
2017-10-31T08:27:30.073Z,48.35
2017-10-31T08:28:38.769Z,48.44
2017-10-31T08:29:48.102Z,48.44
2017-10-31T08:30:57.427Z,48.44
2017-10-31T08:32:06.419Z,48.35
2017-10-31T08:33:15.436Z,48.25
2017-10-31T08:34:25.079Z,48.54
2017-10-31T08:35:34.064Z,48.25
2017-10-31T08:36:43.190Z,48.44
2017-10-31T08:37:52.173Z,48.44
2017-10-31T08:39:01.168Z,48.44
2017-10-31T08:40:10.491Z,48.54
2017-10-31T08:41:19.820Z,48.35
2017-10-31T08:42:28.793Z,48.44
2017-10-31T08:43:38.132Z,48.64
2017-10-31T08:44:47.159Z,48.54
2017-10-31T08:45:56.143Z,48.54
2017-10-31T08:47:05.184Z,48.35
2017-10-31T08:48:14.383Z,48.35
2017-10-31T08:49:23.922Z,48.54
2017-10-31T08:50:33.475Z,48.25
2017-10-31T08:51:42.146Z,48.16
2017-10-31T08:52:52.530Z,48.54
2017-10-31T08:54:03.324Z,48.16
2017-10-31T08:55:12.928Z,48.44
2017-10-31T08:56:22.926Z,48.44
2017-10-31T08:57:32.137Z,48.54
2017-10-31T08:58:41.864Z,48.54
2017-10-31T08:59:51.829Z,48.64
2017-10-31T09:01:00.985Z,48.44
2017-10-31T09:02:10.106Z,48.25
2017-10-31T09:03:19.158Z,48.44
2017-10-31T09:04:28.477Z,48.35
2017-10-31T09:05:37.680Z,48.25
2017-10-31T09:06:47.100Z,48.44
2017-10-31T09:07:56.847Z,48.35
2017-10-31T09:09:06.267Z,48.35
2017-10-31T09:10:15.979Z,48.16
2017-10-31T09:11:25.834Z,48.44
2017-10-31T09:12:35.787Z,48.25
2017-10-31T09:13:44.895Z,48.35
2017-10-31T09:14:53.891Z,47.97
2017-10-31T09:16:03.162Z,48.06
2017-10-31T09:17:12.261Z,48.35
2017-10-31T09:18:21.513Z,48.25
2017-10-31T09:19:30.346Z,48.35
2017-10-31T09:20:39.940Z,47.7
2017-10-31T09:21:49.626Z,47.7
2017-10-31T09:22:59.774Z,47.51
2017-10-31T09:24:10.162Z,47.51
2017-10-31T09:25:20.836Z,47.41
2017-10-31T09:26:29.623Z,47.51
2017-10-31T09:27:38.677Z,47.31
2017-10-31T09:28:48.705Z,47.22
2017-10-31T09:29:58.049Z,47.22
2017-10-31T09:31:07.058Z,47.41
2017-10-31T09:32:16.351Z,46.93
2017-10-31T09:33:25.684Z,46.93
2017-10-31T09:34:35.602Z,46.93
2017-10-31T09:35:44.293Z,47.12
2017-10-31T09:36:53.779Z,47.22
2017-10-31T09:38:02.640Z,47.24
2017-10-31T09:39:11.673Z,47.24
2017-10-31T09:40:20.533Z,47.24
2017-10-31T09:41:29.942Z,47.34
2017-10-31T09:42:39.848Z,47.24
2017-10-31T09:43:48.868Z,47.24
2017-10-31T09:44:58.018Z,47.34
2017-10-31T09:46:07.591Z,47.24
2017-10-31T09:47:16.902Z,47.24
2017-10-31T09:48:28.436Z,47.34
2017-10-31T09:49:37.891Z,47.34
2017-10-31T09:50:47.854Z,47.34
2017-10-31T09:51:57.414Z,47.41
2017-10-31T09:53:06.891Z,47.7
2017-10-31T09:54:16.224Z,48.38
2017-10-31T09:55:25.540Z,48.35
2017-10-31T09:56:35.388Z,48.54
2017-10-31T09:57:44.724Z,48.83
2017-10-31T09:58:53.716Z,49.48
2017-10-31T10:00:02.736Z,49.77
2017-10-31T10:01:11.762Z,49.96
2017-10-31T10:02:20.768Z,50.04
2017-10-31T10:03:30.120Z,50.13
2017-10-31T10:04:39.567Z,50.9
2017-10-31T10:05:48.270Z,50.61
2017-10-31T10:06:57.288Z,50.59
2017-10-31T10:08:07.148Z,50.97
2017-10-31T10:09:15.808Z,50.78
2017-10-31T10:10:25.170Z,51.04
2017-10-31T10:11:34.146Z,51.53
2017-10-31T10:12:43.529Z,51.53
2017-10-31T10:13:53.644Z,51.62
2017-10-31T10:15:02.819Z,51.62
2017-10-31T10:16:11.876Z,51.72
2017-10-31T10:17:20.894Z,51.72
2017-10-31T10:18:29.552Z,51.88
2017-10-31T10:19:38.314Z,51.98
2017-10-31T10:20:48.293Z,51.79
2017-10-31T10:21:57.649Z,52.46
2017-10-31T10:23:06.991Z,52.08
2017-10-31T10:24:16.324Z,52.17
2017-10-31T10:25:25.358Z,52.62
2017-10-31T10:26:34.021Z,52.62
2017-10-31T10:27:43.107Z,52.46
2017-10-31T10:28:51.896Z,52.24
2017-10-31T10:30:02.224Z,52.34
2017-10-31T10:31:12.185Z,52.43
2017-10-31T10:32:21.802Z,52.43
2017-10-31T10:33:32.009Z,52.43
2017-10-31T10:34:41.465Z,52.24
2017-10-31T10:35:50.454Z,52.53
2017-10-31T10:36:59.332Z,52.53
2017-10-31T10:38:08.037Z,52.43
2017-10-31T10:39:16.701Z,52.34
2017-10-31T10:40:25.721Z,52.62
2017-10-31T10:41:34.741Z,52.53
2017-10-31T10:42:43.496Z,52.43
2017-10-31T10:43:52.816Z,52.34
2017-10-31T10:45:01.824Z,52.24
2017-10-31T10:46:11.807Z,52.24
2017-10-31T10:47:20.798Z,52.24
2017-10-31T10:48:30.153Z,52.14
2017-10-31T10:49:39.854Z,52.34
2017-10-31T10:50:48.856Z,52.53
2017-10-31T10:51:57.880Z,52.53
2017-10-31T10:53:07.382Z,51.83
2017-10-31T10:54:17.037Z,52.05
2017-10-31T10:55:26.385Z,51.93
2017-10-31T10:56:35.750Z,51.86
2017-10-31T10:57:45.444Z,51.47
2017-10-31T10:58:54.233Z,51.28
2017-10-31T11:00:03.875Z,51.37
2017-10-31T11:01:13.303Z,51.47
2017-10-31T11:02:22.385Z,51.76
2017-10-31T11:03:31.128Z,51.76
2017-10-31T11:04:40.127Z,51.67
2017-10-31T11:05:49.137Z,51.67
2017-10-31T11:06:58.466Z,51.45
2017-10-31T11:08:07.122Z,51.47
2017-10-31T11:09:16.811Z,51.54
2017-10-31T11:10:25.469Z,51.45
2017-10-31T11:11:34.474Z,51.57
2017-10-31T11:12:43.829Z,51.67
2017-10-31T11:13:53.508Z,51.25
2017-10-31T11:15:03.207Z,50.9
2017-10-31T11:16:12.814Z,51.16
2017-10-31T11:17:22.013Z,51.06
2017-10-31T11:18:31.322Z,50.99
2017-10-31T11:19:40.306Z,50.68
2017-10-31T11:20:49.993Z,50.78
2017-10-31T11:21:59.007Z,50.96
2017-10-31T11:23:08.292Z,50.87
2017-10-31T11:24:18.273Z,50.9
2017-10-31T11:25:27.001Z,50.23
2017-10-31T11:26:35.652Z,50.42
2017-10-31T11:27:45.004Z,50.7
2017-10-31T11:28:53.658Z,50.03
2017-10-31T11:30:03.014Z,50.23
2017-10-31T11:31:12.317Z,49.96
2017-10-31T11:32:21.296Z,50.03
2017-10-31T11:33:30.956Z,49.57
2017-10-31T11:34:40.722Z,49.67
2017-10-31T11:35:49.763Z,49.38
2017-10-31T11:36:59.769Z,48.9
2017-10-31T11:38:09.271Z,48.54
2017-10-31T11:39:18.454Z,48.71
2017-10-31T11:40:28.110Z,48.25
2017-10-31T11:41:36.778Z,48.35
2017-10-31T11:42:45.568Z,48.45
2017-10-31T11:43:55.305Z,48.35
2017-10-31T11:45:04.290Z,48.35
2017-10-31T11:46:14.336Z,48.25
2017-10-31T11:47:23.529Z,48.35
2017-10-31T11:48:34.480Z,48.28
2017-10-31T11:49:44.951Z,47.8
2017-10-31T11:50:54.130Z,47.99
2017-10-31T11:52:04.447Z,47.7
2017-10-31T11:53:14.805Z,47.7
2017-10-31T11:54:24.254Z,47.31
2017-10-31T11:55:34.518Z,47.31
2017-10-31T11:56:44.649Z,47.22
2017-10-31T11:57:54.497Z,47.31
2017-10-31T11:59:03.827Z,46.95
2017-10-31T12:00:12.628Z,47.15
2017-10-31T12:01:22.468Z,46.95
2017-10-31T12:02:32.333Z,47.15
2017-10-31T12:03:42.100Z,47.15
2017-10-31T12:04:51.100Z,47.24
2017-10-31T12:06:01.115Z,47.05
2017-10-31T12:07:10.715Z,47.05
2017-10-31T12:08:21.120Z,47.05
2017-10-31T12:09:30.110Z,47.15
2017-10-31T12:10:39.770Z,47.15
2017-10-31T12:11:49.134Z,46.95
2017-10-31T12:12:58.241Z,47.34
2017-10-31T12:14:07.564Z,47.34
2017-10-31T12:15:16.278Z,46.47
2017-10-31T12:16:26.340Z,46.47
2017-10-31T12:17:36.204Z,46.67
2017-10-31T12:18:45.199Z,46.57
2017-10-31T12:19:55.162Z,46.57
2017-10-31T12:21:05.096Z,46.57
2017-10-31T12:22:14.987Z,46.59
2017-10-31T12:23:25.361Z,46.77
2017-10-31T12:24:34.988Z,46.5
2017-10-31T12:25:44.984Z,46.47
2017-10-31T12:26:54.018Z,46.5
2017-10-31T12:28:03.752Z,46.21
2017-10-31T12:29:13.282Z,46.21
2017-10-31T12:30:22.728Z,46.31
2017-10-31T12:31:32.878Z,46.21
2017-10-31T12:32:42.441Z,46.4
2017-10-31T12:33:52.702Z,46.5
2017-10-31T12:35:01.651Z,46.5
2017-10-31T12:36:11.117Z,46.11
2017-10-31T12:37:20.258Z,46.5
2017-10-31T12:38:29.518Z,46.4
2017-10-31T12:39:38.772Z,46.5
2017-10-31T12:40:47.989Z,46.5
2017-10-31T12:41:57.280Z,46.5
2017-10-31T12:43:08.027Z,46.5
2017-10-31T12:44:17.524Z,46.31
2017-10-31T12:45:27.388Z,46.5
2017-10-31T12:46:37.536Z,46.59
2017-10-31T12:47:46.378Z,46.31
2017-10-31T12:48:55.991Z,46.11
2017-10-31T12:50:05.411Z,46.4
2017-10-31T12:51:14.182Z,46.11
2017-10-31T12:52:23.457Z,46.21
2017-10-31T12:53:32.993Z,45.92
2017-10-31T12:54:41.843Z,45.92
2017-10-31T12:55:51.596Z,46.21
2017-10-31T12:57:00.722Z,46.4
2017-10-31T12:58:09.893Z,46.01
2017-10-31T12:59:21.893Z,46.4
2017-10-31T13:00:31.656Z,46.21
2017-10-31T13:01:41.501Z,46.4
2017-10-31T13:02:50.348Z,46.31
2017-10-31T13:03:59.120Z,46.4
2017-10-31T13:05:08.311Z,46.5
2017-10-31T13:06:17.528Z,46.31
2017-10-31T13:07:27.261Z,46.4
2017-10-31T13:08:36.708Z,46.31
2017-10-31T13:09:45.859Z,46.5
2017-10-31T13:10:54.724Z,46.4
2017-10-31T13:12:04.314Z,46.31
2017-10-31T13:13:13.677Z,46.31
2017-10-31T13:14:23.131Z,46.4
2017-10-31T13:15:32.129Z,46.31
2017-10-31T13:16:41.800Z,46.4
2017-10-31T13:17:51.119Z,46.31
2017-10-31T13:19:00.447Z,46.21
2017-10-31T13:20:09.103Z,46.31
2017-10-31T13:21:18.181Z,46.01
2017-10-31T13:22:28.155Z,46.33
2017-10-31T13:23:37.513Z,46.31
2017-10-31T13:24:46.569Z,46.31
2017-10-31T13:25:55.927Z,46.04
2017-10-31T13:27:04.740Z,46.31
2017-10-31T13:28:14.236Z,46.23
2017-10-31T13:29:23.928Z,46.42
2017-10-31T13:30:33.623Z,46.33
2017-10-31T13:31:43.033Z,46.33
2017-10-31T13:32:52.395Z,46.4
2017-10-31T13:34:01.798Z,46.23
2017-10-31T13:35:10.491Z,46.14
2017-10-31T13:36:19.871Z,46.23
2017-10-31T13:37:28.621Z,46.14
2017-10-31T13:38:37.939Z,46.23
2017-10-31T13:39:46.668Z,46.14
2017-10-31T13:40:55.709Z,46.04
2017-10-31T13:42:05.032Z,46.23
2017-10-31T13:43:13.726Z,46.23
2017-10-31T13:44:22.707Z,46.04
2017-10-31T13:45:32.025Z,46.33
2017-10-31T13:46:41.675Z,46.04
2017-10-31T13:47:51.125Z,46.33
2017-10-31T13:48:59.813Z,46.14
2017-10-31T13:50:09.166Z,46.14
2017-10-31T13:51:17.831Z,46.04
2017-10-31T13:52:27.156Z,46.42
2017-10-31T13:53:36.260Z,46.33
2017-10-31T13:54:45.910Z,46.23
2017-10-31T13:55:54.915Z,46.33
2017-10-31T13:57:03.637Z,46.33
2017-10-31T13:58:12.622Z,46.14
2017-10-31T13:59:21.615Z,46.23
2017-10-31T14:00:30.682Z,46.04
2017-10-31T14:01:39.356Z,46.14
2017-10-31T14:02:48.366Z,46.14
2017-10-31T14:03:57.055Z,46.04
2017-10-31T14:05:06.066Z,46.14
2017-10-31T14:06:15.104Z,45.84
2017-10-31T14:07:24.096Z,45.84
2017-10-31T14:08:33.455Z,45.84
2017-10-31T14:09:42.118Z,46.14
2017-10-31T14:10:51.100Z,45.94
2017-10-31T14:12:00.088Z,46.04
2017-10-31T14:13:09.096Z,46.04
2017-10-31T14:14:18.462Z,45.94
2017-10-31T14:15:27.440Z,45.84
2017-10-31T14:16:36.876Z,45.84
2017-10-31T14:17:46.218Z,45.94
2017-10-31T14:18:55.246Z,45.84
2017-10-31T14:20:04.246Z,46.14
2017-10-31T14:21:12.900Z,46.14
2017-10-31T14:22:21.565Z,46.52
2017-10-31T14:23:30.603Z,46.33
2017-10-31T14:24:39.927Z,46.42
2017-10-31T14:25:49.626Z,46.33
2017-10-31T14:26:58.987Z,46.42
2017-10-31T14:28:08.669Z,46.33
2017-10-31T14:29:17.322Z,46.23
2017-10-31T14:30:26.351Z,46.04
2017-10-31T14:31:35.366Z,46.04
2017-10-31T14:32:44.447Z,46.33
2017-10-31T14:33:53.783Z,46.33
2017-10-31T14:35:02.439Z,46.23
2017-10-31T14:36:12.157Z,46.52
2017-10-31T14:37:21.818Z,46.62
2017-10-31T14:38:30.695Z,46.62
2017-10-31T14:39:39.686Z,46.52
2017-10-31T14:40:49.249Z,46.69
2017-10-31T14:41:58.523Z,47.36
2017-10-31T14:43:08.166Z,46.69
2017-10-31T14:44:17.678Z,46.5
2017-10-31T14:45:26.884Z,46.52
2017-10-31T14:46:37.076Z,46.52
2017-10-31T14:47:46.506Z,46.5
2017-10-31T14:48:55.306Z,46.42
2017-10-31T14:50:04.224Z,46.42
2017-10-31T14:51:12.999Z,46.71
2017-10-31T14:52:22.485Z,46.69
2017-10-31T14:53:32.477Z,46.69
2017-10-31T14:54:42.483Z,46.69
2017-10-31T14:55:51.755Z,46.59